Time;durP1;ratioP1;P1;durP2;ratioP2;P2;SDS_P1;SDS_P2;PMS_P1;PMS_P2;Temp;Humidity;BMP_temperature;BMP_pressure;BME280_temperature;BME280_humidity;BME280_pressure;Samples;Min_cycle;Max_cycle;Signal;HPM_P1;HPM_P2
2022/02/16 00:00:23;;;;;;;39.25;22.00;;;;;;;9.61;64.20;99857.59;4484169;31;34560;-83
2022/02/16 00:02:51;;;;;;;43.58;23.38;;;;;;;9.69;64.04;99852.03;4494827;31;33702;-83
2022/02/16 00:05:19;;;;;;;42.83;21.58;;;;;;;9.62;64.09;99842.63;4479343;31;33684;-83
2022/02/16 00:07:48;;;;;;;38.45;21.20;;;;;;;9.62;64.32;99847.87;4479572;31;33129;-83
2022/02/16 00:10:16;;;;;;;42.67;22.77;;;;;;;9.71;64.26;99837.00;4499363;31;33493;-83
2022/02/16 00:12:46;;;;;;;49.40;25.12;;;;;;;9.79;63.72;99840.19;4472801;31;32948;-83
2022/02/16 00:15:14;;;;;;;39.35;21.58;;;;;;;9.68;64.27;99837.94;4493488;31;33800;-82
2022/02/16 00:17:43;;;;;;;42.00;21.83;;;;;;;9.75;64.38;99838.59;4480565;31;34108;-83
2022/02/16 00:20:11;;;;;;;41.42;22.75;;;;;;;9.63;64.67;99837.28;4473132;31;33053;-83
2022/02/16 00:22:39;;;;;;;50.95;23.48;;;;;;;9.66;64.62;99838.94;4479308;31;33646;-83
2022/02/16 00:25:08;;;;;;;43.08;23.55;;;;;;;9.42;65.46;99852.16;4467651;31;33574;-83
2022/02/16 00:27:37;;;;;;;45.70;23.50;;;;;;;9.45;65.49;99841.50;4466677;31;32745;-83
2022/02/16 00:30:05;;;;;;;46.17;23.15;;;;;;;9.52;65.15;99838.63;4477907;31;33562;-83
2022/02/16 00:32:33;;;;;;;39.60;22.37;;;;;;;9.29;66.26;99844.78;4474234;31;33001;-83
2022/02/16 00:35:01;;;;;;;43.55;24.20;;;;;;;9.52;65.49;99844.75;4485788;31;32493;-83
2022/02/16 00:37:28;;;;;;;48.25;24.17;;;;;;;9.37;66.03;99843.56;4473036;31;33538;-83
2022/02/16 00:39:56;;;;;;;42.30;23.87;;;;;;;9.53;65.60;99832.44;4492618;31;32681;-83
2022/02/16 00:42:24;;;;;;;39.92;22.55;;;;;;;9.57;65.47;99841.94;4478554;31;34459;-84
2022/02/16 00:44:52;;;;;;;40.50;22.92;;;;;;;9.51;65.83;99834.28;4479227;31;32398;-83
2022/02/16 00:47:20;;;;;;;45.20;23.85;;;;;;;9.98;63.93;99827.13;4498578;31;33130;-83
2022/02/16 00:49:48;;;;;;;50.12;24.80;;;;;;;10.18;63.09;99810.47;4465534;31;32485;-82
2022/02/16 00:52:17;;;;;;;46.50;25.10;;;;;;;10.01;63.71;99812.00;4478641;31;33424;-83
2022/02/16 00:54:46;;;;;;;48.58;23.55;;;;;;;9.64;65.09;99814.44;4499964;31;33389;-83
2022/02/16 00:57:16;;;;;;;44.53;22.40;;;;;;;9.40;66.12;99809.19;4478952;31;32543;-82
2022/02/16 00:59:44;;;;;;;37.40;22.27;;;;;;;9.81;64.90;99806.69;4499906;31;33446;-82
2022/02/16 01:02:12;;;;;;;43.95;24.45;;;;;;;10.03;63.93;99776.81;4477933;31;33475;-82
2022/02/16 01:04:40;;;;;;;40.67;22.70;;;;;;;9.70;65.03;99777.28;4477839;31;34130;-83
2022/02/16 01:07:07;;;;;;;43.15;22.83;;;;;;;9.32;66.47;99781.44;4466312;31;31661;-83
2022/02/16 01:09:39;;;;;;;42.90;23.23;;;;;;;9.09;67.49;99783.16;4499373;31;34483;-85
2022/02/16 01:12:07;;;;;;;40.65;23.40;;;;;;;9.25;67.20;99796.59;4477935;31;33588;-84
2022/02/16 01:14:35;;;;;;;42.42;22.62;;;;;;;9.20;67.21;99804.66;4484357;31;32692;-83
2022/02/16 01:17:05;;;;;;;40.72;24.02;;;;;;;9.22;67.16;99796.72;4485623;31;33702;-83
2022/02/16 01:19:34;;;;;;;45.45;23.73;;;;;;;9.13;67.48;99803.19;4479374;31;33200;-84
2022/02/16 01:22:04;;;;;;;47.17;23.77;;;;;;;9.25;67.01;99783.41;4477271;31;34950;-83
2022/02/16 01:24:32;;;;;;;45.03;24.48;;;;;;;9.46;66.06;99789.66;4484598;31;32479;-83
2022/02/16 01:27:01;;;;;;;44.35;23.20;;;;;;;9.52;65.50;99780.63;4490738;31;33518;-82
2022/02/16 01:29:29;;;;;;;46.55;26.02;;;;;;;9.13;66.91;99786.53;4477818;31;33813;-83
2022/02/16 01:31:58;;;;;;;44.83;23.98;;;;;;;9.27;66.61;99784.25;4476095;31;32584;-82
2022/02/16 01:34:26;;;;;;;43.50;22.85;;;;;;;9.29;66.60;99782.38;4480351;31;32892;-82
2022/02/16 01:36:53;;;;;;;51.78;23.95;;;;;;;9.14;67.02;99777.72;4477951;31;33157;-82
2022/02/16 01:39:22;;;;;;;47.42;25.27;;;;;;;9.37;66.22;99768.94;4478151;31;33375;-82
2022/02/16 01:41:52;;;;;;;49.20;25.08;;;;;;;9.18;66.45;99764.37;4479143;31;35246;-82
2022/02/16 01:44:22;;;;;;;54.70;26.12;;;;;;;8.85;67.39;99761.25;4489194;31;33498;-82
2022/02/16 01:46:55;;;;;;;47.55;24.40;;;;;;;9.22;66.34;99770.38;4466347;31;33410;-82
2022/02/16 01:49:23;;;;;;;;;;;;;;;8.43;68.96;99796.09;4465051;31;32935;-83
2022/02/16 01:51:51;;;;;;;46.47;23.90;;;;;;;8.37;69.50;99791.03;4494248;31;32951;-83
2022/02/16 01:54:21;;;;;;;50.08;25.50;;;;;;;8.57;68.89;99779.81;4488717;31;34478;-81
2022/02/16 01:56:49;;;;;;;48.80;25.85;;;;;;;8.66;68.64;99776.00;4477064;31;33855;-81
2022/02/16 01:59:19;;;;;;;49.58;24.80;;;;;;;8.94;67.63;99773.22;4478623;31;32643;-81
2022/02/16 02:01:52;;;;;;;51.10;26.15;;;;;;;8.67;68.28;99778.56;4484731;31;33575;-81
2022/02/16 02:04:20;;;;;;;47.67;24.45;;;;;;;8.68;68.44;99769.75;4495693;31;33670;-81
2022/02/16 02:06:48;;;;;;;45.45;23.85;;;;;;;8.85;68.13;99766.50;4492436;31;34181;-82
2022/02/16 02:09:16;;;;;;;59.38;25.17;;;;;;;8.94;67.92;99760.91;4490427;31;34125;-84
2022/02/16 02:11:45;;;;;;;44.33;23.67;;;;;;;9.17;67.24;99751.25;4494932;31;33523;-84
2022/02/16 02:14:13;;;;;;;50.80;25.27;;;;;;;9.23;67.06;99751.03;4491900;31;33718;-84
2022/02/16 02:16:42;;;;;;;48.63;25.48;;;;;;;9.25;66.78;99757.06;4494531;31;34198;-84
2022/02/16 02:19:10;;;;;;;50.53;25.75;;;;;;;9.33;66.70;99757.63;4495239;31;33056;-84
2022/02/16 02:21:38;;;;;;;45.97;24.17;;;;;;;9.36;66.55;99754.03;4481836;31;32869;-84
2022/02/16 02:24:06;;;;;;;48.78;26.00;;;;;;;9.23;67.05;99757.13;4476960;31;32623;-84
2022/02/16 02:26:35;;;;;;;43.42;23.15;;;;;;;9.38;66.58;99749.56;4486655;31;32763;-84
2022/02/16 02:29:03;;;;;;;42.75;22.98;;;;;;;9.43;66.39;99751.09;4481776;31;33552;-84
2022/02/16 02:31:33;;;;;;;43.60;22.83;;;;;;;9.46;66.39;99758.88;4478887;31;33791;-84
2022/02/16 02:34:02;;;;;;;44.78;23.73;;;;;;;9.64;65.78;99746.75;4479196;31;32761;-84
2022/02/16 02:36:31;;;;;;;52.10;25.70;;;;;;;9.58;65.86;99751.38;4493395;31;33171;-84
2022/02/16 02:38:59;;;;;;;46.30;26.62;;;;;;;9.55;66.05;99746.25;4492583;31;33419;-84
2022/02/16 02:41:26;;;;;;;44.70;24.33;;;;;;;9.46;66.13;99756.25;4472945;31;32489;-85
2022/02/16 02:43:54;;;;;;;45.17;23.35;;;;;;;9.44;66.23;99747.53;4481748;31;33501;-84
2022/02/16 02:46:22;;;;;;;49.17;23.80;;;;;;;9.43;66.33;99751.09;4492835;31;33290;-85
2022/02/16 02:48:50;;;;;;;47.38;24.70;;;;;;;9.50;66.23;99759.63;4493493;31;34459;-85
2022/02/16 02:51:19;;;;;;;44.42;23.05;;;;;;;9.44;66.49;99762.47;4492597;31;34018;-84
2022/02/16 02:53:47;;;;;;;49.78;26.02;;;;;;;9.52;66.22;99762.19;4500361;31;34356;-84
2022/02/16 02:56:16;;;;;;;50.25;24.48;;;;;;;9.45;66.59;99765.06;4486796;31;33081;-84
2022/02/16 02:58:44;;;;;;;45.63;23.85;;;;;;;9.48;66.45;99757.03;4476828;31;33456;-84
2022/02/16 03:01:12;;;;;;;44.80;22.50;;;;;;;9.63;65.96;99762.59;4492328;31;34154;-84
2022/02/16 03:03:40;;;;;;;50.72;22.70;;;;;;;9.62;66.02;99758.25;4493275;31;35608;-84
2022/02/16 03:06:09;;;;;;;44.63;24.73;;;;;;;9.59;66.15;99759.25;4480533;31;32919;-84
2022/02/16 03:08:37;;;;;;;45.88;24.67;;;;;;;9.68;65.90;99760.62;4492674;31;33419;-84
2022/02/16 03:11:05;;;;;;;44.95;22.30;;;;;;;9.74;65.52;99763.03;4473604;31;34718;-84
2022/02/16 03:13:33;;;;;;;47.85;25.05;;;;;;;9.81;65.22;99764.50;4494871;31;33380;-84
2022/02/16 03:16:02;;;;;;;45.33;24.85;;;;;;;10.01;64.30;99756.59;4479620;31;33211;-83
2022/02/16 03:18:31;;;;;;;47.60;22.85;;;;;;;9.58;65.53;99756.66;4471670;31;34001;-83
2022/02/16 03:20:59;;;;;;;50.42;24.17;;;;;;;9.63;65.56;99749.41;4500837;31;34702;-83
2022/02/16 03:23:27;;;;;;;47.10;23.15;;;;;;;9.73;65.38;99759.56;4473160;31;32546;-83
2022/02/16 03:25:55;;;;;;;37.25;20.42;;;;;;;9.87;64.64;99758.97;4479917;31;33619;-83
2022/02/16 03:28:24;;;;;;;41.92;22.75;;;;;;;9.74;65.04;99760.41;4486476;31;34835;-82
2022/02/16 03:30:53;;;;;;;41.85;23.45;;;;;;;9.55;65.78;99762.06;4479996;31;33096;-83
2022/02/16 03:33:36;;;;;;;44.92;21.98;;;;;;;9.96;64.12;99755.09;4484145;31;33399;-83
2022/02/16 03:36:04;;;;;;;47.85;22.73;;;;;;;9.70;64.81;99758.81;4492023;31;32800;-84
2022/02/16 03:38:32;;;;;;;42.92;21.33;;;;;;;9.46;65.54;99750.97;4472880;31;32844;-84
2022/02/16 03:41:00;;;;;;;42.97;22.13;;;;;;;9.52;65.39;99751.66;4481073;31;33843;-83
2022/02/16 03:43:28;;;;;;;42.33;22.65;;;;;;;9.53;65.49;99758.63;4462649;31;33375;-83
2022/02/16 03:45:56;;;;;;;39.90;22.25;;;;;;;9.53;65.39;99753.34;4475124;31;32078;-84
2022/02/16 03:48:24;;;;;;;39.35;23.02;;;;;;;9.59;65.11;99750.47;4473135;31;33186;-84
2022/02/16 03:50:52;;;;;;;44.42;23.38;;;;;;;9.46;65.61;99747.47;4479626;31;33152;-85
2022/02/16 03:53:20;;;;;;;43.42;21.48;;;;;;;9.52;65.46;99751.66;4483049;31;33841;-83
2022/02/16 03:55:48;;;;;;;35.60;20.23;;;;;;;9.62;65.00;99758.25;4491861;31;33462;-84
2022/02/16 03:58:16;;;;;;;34.90;19.25;;;;;;;9.61;65.10;99761.81;4479564;31;34312;-83
2022/02/16 04:00:43;;;;;;;37.03;20.27;;;;;;;9.56;65.45;99769.06;4479701;31;33641;-83
2022/02/16 04:03:11;;;;;;;36.90;21.20;;;;;;;9.43;65.94;99774.81;4479454;31;32675;-84
2022/02/16 04:05:40;;;;;;;32.70;18.90;;;;;;;9.62;65.47;99774.06;4500397;31;33915;-83
2022/02/16 04:08:09;;;;;;;24.65;16.70;;;;;;;9.62;65.27;99779.34;4491784;31;33152;-82
2022/02/16 04:10:37;;;;;;;24.80;15.27;;;;;;;9.32;66.31;99781.44;4489069;31;33979;-81
2022/02/16 04:13:05;;;;;;;25.90;14.60;;;;;;;9.40;66.28;99779.31;4465493;31;32574;-82
2022/02/16 04:15:35;;;;;;;24.73;14.52;;;;;;;9.39;66.31;99782.88;4492803;31;33887;-81
2022/02/16 04:18:04;;;;;;;18.87;13.68;;;;;;;9.53;66.03;99792.88;4492503;31;33476;-82
2022/02/16 04:20:32;;;;;;;18.67;12.93;;;;;;;9.36;66.49;99788.28;4489216;31;33675;-83
2022/02/16 04:22:59;;;;;;;18.40;12.37;;;;;;;9.56;65.93;99782.25;4467428;31;33149;-83
2022/02/16 04:25:27;;;;;;;20.10;14.05;;;;;;;9.42;66.18;99788.06;4492872;31;33434;-83
2022/02/16 04:27:56;;;;;;;19.45;14.20;;;;;;;9.46;66.04;99779.09;4493757;31;33243;-82
2022/02/16 04:30:27;;;;;;;22.05;13.27;;;;;;;9.54;65.75;99786.69;4482804;31;33987;-83
2022/02/16 04:32:55;;;;;;;21.52;13.82;;;;;;;9.23;67.05;99783.50;4485851;31;34093;-83
2022/02/16 04:35:23;;;;;;;18.73;12.75;;;;;;;9.28;66.81;99778.03;4489425;31;34000;-83
2022/02/16 04:37:50;;;;;;;15.95;11.73;;;;;;;9.34;66.61;99784.84;4459649;31;33974;-83
2022/02/16 04:40:18;;;;;;;16.77;12.10;;;;;;;9.27;66.93;99780.75;4485558;31;34133;-82
2022/02/16 04:42:46;;;;;;;16.48;12.37;;;;;;;9.25;66.90;99780.78;4478627;31;32668;-84
2022/02/16 04:45:14;;;;;;;17.10;12.20;;;;;;;9.43;66.40;99790.63;4479310;31;33859;-84
2022/02/16 04:47:44;;;;;;;19.08;12.77;;;;;;;9.36;66.57;99785.66;4480481;31;34590;-82
2022/02/16 04:50:13;;;;;;;19.30;12.75;;;;;;;9.48;66.21;99780.75;4480373;31;33037;-82
2022/02/16 04:52:40;;;;;;;20.45;13.18;;;;;;;9.33;66.54;99789.25;4489992;31;33478;-83
2022/02/16 04:55:10;;;;;;;16.92;12.15;;;;;;;9.47;66.25;99789.59;4492831;31;33043;-85
2022/02/16 04:57:38;;;;;;;14.90;11.68;;;;;;;9.67;65.08;99786.16;4487676;31;34599;-85
2022/02/16 05:00:08;;;;;;;16.55;11.02;;;;;;;9.56;65.36;99795.41;4477317;31;34566;-82
2022/02/16 05:02:39;;;;;;;17.05;12.02;;;;;;;9.30;66.57;99794.63;4491435;31;33333;-82
2022/02/16 05:05:08;;;;;;;15.32;10.90;;;;;;;9.23;66.76;99798.44;4477798;31;33425;-82
2022/02/16 05:07:36;;;;;;;14.63;10.45;;;;;;;9.11;67.18;99794.47;4487592;31;33780;-82
2022/02/16 05:10:05;;;;;;;16.45;11.18;;;;;;;9.42;65.99;99788.06;4469026;31;32978;-82
2022/02/16 05:12:35;;;;;;;15.55;10.57;;;;;;;9.20;66.97;99778.31;4485805;31;33666;-83
2022/02/16 05:15:05;;;;;;;14.93;10.77;;;;;;;9.11;67.54;99788.34;4467259;31;33342;-82
2022/02/16 05:17:33;;;;;;;14.87;10.27;;;;;;;9.10;67.51;99791.91;4476410;31;34099;-83
2022/02/16 05:20:01;;;;;;;16.52;11.43;;;;;;;9.31;67.01;99785.84;4471286;31;31790;-82
2022/02/16 05:22:30;;;;;;;19.42;10.85;;;;;;;9.27;67.06;99778.97;4466833;31;34308;-82
2022/02/16 05:24:59;;;;;;;13.90;10.80;;;;;;;9.43;66.55;99776.59;4476799;31;34025;-83
2022/02/16 05:27:26;;;;;;;15.48;11.27;;;;;;;9.57;65.83;99770.78;4477862;31;33164;-82
2022/02/16 05:29:54;;;;;;;19.75;11.52;;;;;;;9.59;65.62;99771.56;4495226;31;33601;-83
2022/02/16 05:32:22;;;;;;;17.02;11.68;;;;;;;9.80;64.72;99772.47;4480107;31;34174;-83
2022/02/16 05:34:50;;;;;;;33.05;17.25;;;;;;;9.77;64.78;99775.22;4487532;31;32735;-83
2022/02/16 05:37:18;;;;;;;31.70;16.75;;;;;;;9.69;64.95;99779.06;4465488;31;33794;-83
2022/02/16 05:39:46;;;;;;;40.80;21.08;;;;;;;9.41;65.88;99779.28;4488436;31;33321;-84
2022/02/16 05:42:13;;;;;;;42.90;21.70;;;;;;;9.56;65.31;99779.59;4462646;31;33720;-84
2022/02/16 05:44:42;;;;;;;44.90;21.67;;;;;;;9.58;64.90;99781.25;4479407;31;34222;-84
2022/02/16 05:47:10;;;;;;;44.50;22.75;;;;;;;9.55;64.72;99783.16;4489607;31;35065;-85
2022/02/16 05:49:37;;;;;;;40.85;21.42;;;;;;;9.36;65.26;99794.44;4489253;31;32919;-83
2022/02/16 05:52:06;;;;;;;41.75;23.17;;;;;;;9.11;66.23;99796.25;4486727;31;32319;-84
2022/02/16 05:54:34;;;;;;;47.03;23.02;;;;;;;9.32;65.99;99787.56;4478967;31;34763;-85
2022/02/16 05:57:01;;;;;;;57.05;24.15;;;;;;;9.40;65.43;99788.13;4490306;31;31544;-84
2022/02/16 05:59:29;;;;;;;54.63;25.02;;;;;;;9.37;65.20;99788.22;4476199;31;34618;-83
2022/02/16 06:02:03;;;;;;;51.17;23.60;;;;;;;9.52;64.70;99788.53;4476350;31;33441;-83
2022/02/16 06:04:32;;;;;;;51.55;24.08;;;;;;;9.22;65.48;99789.69;4488611;31;31626;-83
2022/02/16 06:07:03;;;;;;;52.38;25.85;;;;;;;8.92;66.98;99799.56;4483023;31;33533;-83
2022/02/16 06:09:32;;;;;;;48.20;22.30;;;;;;;9.33;65.84;99796.31;4464588;31;32631;-84
2022/02/16 06:11:59;;;;;;;44.67;22.80;;;;;;;9.18;66.17;99803.87;4486812;31;33691;-83
2022/02/16 06:14:27;;;;;;;52.00;23.83;;;;;;;8.94;67.25;99791.62;4489785;31;33205;-84
2022/02/16 06:16:56;;;;;;;49.92;24.92;;;;;;;8.87;67.72;99800.66;4477546;31;33455;-83
2022/02/16 06:19:24;;;;;;;48.40;23.00;;;;;;;8.98;67.54;99809.91;4478223;31;33764;-83
2022/02/16 06:21:52;;;;;;;46.45;23.15;;;;;;;9.05;67.24;99802.63;4476394;31;33028;-83
2022/02/16 06:24:20;;;;;;;48.78;23.62;;;;;;;9.31;66.39;99801.66;4467161;31;32361;-87
2022/02/16 06:26:48;;;;;;;45.38;23.77;;;;;;;9.23;66.60;99809.84;4476199;31;34115;-86
2022/02/16 06:29:15;;;;;;;49.83;26.02;;;;;;;9.19;66.62;99810.00;4476884;31;33456;-84
2022/02/16 06:31:44;;;;;;;46.08;25.85;;;;;;;9.08;67.04;99810.41;4492018;31;32862;-84
2022/02/16 06:34:12;;;;;;;43.63;23.08;;;;;;;9.21;66.72;99810.81;4479716;31;33444;-84
2022/02/16 06:36:41;;;;;;;41.97;19.87;;;;;;;8.95;67.31;99815.28;4493941;31;34557;-85
2022/02/16 06:39:12;;;;;;;42.22;21.10;;;;;;;8.98;67.47;99816.94;4488012;31;34013;-84
2022/02/16 06:41:40;;;;;;;35.80;18.48;;;;;;;9.09;67.20;99821.81;4478267;31;35053;-84
2022/02/16 06:44:08;;;;;;;32.30;17.40;;;;;;;8.93;67.62;99821.53;4477380;31;33164;-84
2022/02/16 06:46:37;;;;;;;31.62;15.20;;;;;;;9.06;67.30;99821.91;4500370;31;33550;-84
2022/02/16 06:49:04;;;;;;;30.00;14.90;;;;;;;9.09;67.14;99827.09;4494121;31;33564;-84
2022/02/16 06:51:33;;;;;;;29.02;16.20;;;;;;;9.07;66.83;99840.31;4472730;31;32942;-84
2022/02/16 06:54:01;;;;;;;26.40;13.05;;;;;;;9.09;67.02;99832.34;4480939;31;34183;-85
2022/02/16 06:56:30;;;;;;;27.73;14.57;;;;;;;9.19;66.77;99824.03;4482038;31;32693;-84
2022/02/16 06:59:03;;;;;;;29.25;14.52;;;;;;;9.00;67.48;99822.16;4491547;31;34085;-85
2022/02/16 07:01:31;;;;;;;29.37;14.48;;;;;;;9.30;66.52;99823.63;4476886;31;33741;-85
2022/02/16 07:03:59;;;;;;;31.42;14.55;;;;;;;9.21;66.98;99832.75;4480262;31;32419;-84
2022/02/16 07:06:29;;;;;;;30.33;15.65;;;;;;;9.22;66.93;99834.47;4481267;31;33410;-84
2022/02/16 07:08:58;;;;;;;27.30;14.10;;;;;;;9.21;66.97;99830.12;4474123;31;32946;-85
2022/02/16 07:11:26;;;;;;;23.60;13.50;;;;;;;9.71;64.53;99826.44;4483767;31;32667;-87
2022/02/16 07:13:53;;;;;;;23.50;12.07;;;;;;;9.40;65.09;99821.50;4491167;31;33084;-86
2022/02/16 07:16:21;;;;;;;24.58;12.45;;;;;;;9.44;64.47;99815.19;4488158;31;33812;-86
2022/02/16 07:18:49;;;;;;;21.08;11.43;;;;;;;9.26;65.69;99816.78;4481444;31;33609;-86
2022/02/16 07:21:18;;;;;;;20.60;12.50;;;;;;;9.32;66.18;99813.91;4476275;31;32950;-87
2022/02/16 07:23:48;;;;;;;23.12;12.27;;;;;;;9.12;67.46;99826.97;4487972;31;32899;-86
2022/02/16 07:26:19;;;;;;;25.85;13.50;;;;;;;9.12;67.70;99824.34;4476872;31;32444;-86
2022/02/16 07:28:47;;;;;;;22.50;13.20;;;;;;;9.16;67.52;99823.28;4477036;31;33021;-87
2022/02/16 07:31:16;;;;;;;20.77;11.65;;;;;;;9.34;66.85;99830.50;4477026;31;32958;-86
2022/02/16 07:33:43;;;;;;;22.25;12.15;;;;;;;9.46;66.36;99822.12;4474729;31;32772;-86
2022/02/16 07:36:11;;;;;;;24.05;12.20;;;;;;;9.52;66.48;99825.44;4478734;31;33648;-86
2022/02/16 07:38:39;;;;;;;23.90;12.23;;;;;;;9.44;66.63;99823.94;4473473;31;33445;-86
2022/02/16 07:41:07;;;;;;;19.02;10.90;;;;;;;9.68;65.80;99831.81;4480891;31;33264;-87
2022/02/16 07:43:36;;;;;;;18.65;10.95;;;;;;;9.81;65.02;99827.78;4477664;31;32964;-86
2022/02/16 07:46:07;;;;;;;17.55;9.48;;;;;;;9.74;64.78;99828.97;4460030;31;32748;-86
2022/02/16 07:48:35;;;;;;;18.70;10.35;;;;;;;9.84;64.57;99826.81;4476260;31;34396;-86
2022/02/16 07:51:06;;;;;;;16.50;9.13;;;;;;;9.74;64.66;99832.47;4478921;31;33238;-86
2022/02/16 07:53:49;;;;;;;14.80;8.25;;;;;;;9.89;64.47;99830.97;4478786;31;33080;-86
2022/02/16 07:56:18;;;;;;;13.38;7.65;;;;;;;9.82;64.96;99829.50;4462076;31;31899;-86
2022/02/16 07:58:46;;;;;;;12.65;7.68;;;;;;;9.97;64.55;99826.25;4475115;31;34722;-85
2022/02/16 08:01:13;;;;;;;13.75;7.70;;;;;;;10.34;62.72;99837.09;4486959;31;34034;-84
2022/02/16 08:03:41;;;;;;;13.02;8.27;;;;;;;10.37;61.75;99829.06;4476464;31;33336;-85
2022/02/16 08:06:09;;;;;;;13.65;8.13;;;;;;;10.17;63.22;99829.84;4487058;31;33177;-85
2022/02/16 08:08:37;;;;;;;14.25;8.05;;;;;;;9.76;63.54;99829.75;4470210;31;34206;-85
2022/02/16 08:11:05;;;;;;;18.65;9.18;;;;;;;9.91;62.36;99834.41;4475165;31;32632;-85
2022/02/16 08:13:32;;;;;;;20.23;9.70;;;;;;;9.98;62.40;99835.03;4476188;31;32735;-85
2022/02/16 08:16:00;;;;;;;14.27;8.93;;;;;;;9.90;63.22;99831.84;4484423;31;33848;-85
2022/02/16 08:18:29;;;;;;;24.52;11.40;;;;;;;10.06;63.31;99834.69;4488753;31;34690;-84
2022/02/16 08:20:56;;;;;;;18.33;10.70;;;;;;;9.70;64.42;99856.37;4486713;31;32886;-85
2022/02/16 08:23:27;;;;;;;17.60;10.15;;;;;;;9.97;64.00;99852.62;4473227;31;32672;-85
2022/02/16 08:25:56;;;;;;;18.90;9.83;;;;;;;10.10;63.70;99852.97;4487879;31;33592;-85
2022/02/16 08:28:24;;;;;;;19.62;9.82;;;;;;;9.82;63.98;99853.22;4474220;31;34813;-85
2022/02/16 08:30:52;;;;;;;18.87;9.10;;;;;;;10.15;62.20;99848.37;4474940;31;32455;-84
2022/02/16 08:33:20;;;;;;;15.88;8.48;;;;;;;9.76;63.83;99850.84;4466231;31;33028;-85
2022/02/16 08:35:48;;;;;;;14.52;8.48;;;;;;;9.88;62.84;99845.09;4486858;31;33156;-84
2022/02/16 08:38:16;;;;;;;14.10;8.52;;;;;;;10.04;62.68;99849.75;4492798;31;33927;-85
2022/02/16 08:40:44;;;;;;;15.25;8.27;;;;;;;9.85;63.54;99845.22;4492220;31;32719;-85
2022/02/16 08:43:27;;;;;;;13.30;7.82;;;;;;;10.07;62.65;99841.72;4492958;31;33209;-84
2022/02/16 08:45:58;;;;;;;10.07;6.25;;;;;;;9.84;62.93;99840.84;4477083;31;33471;-85
2022/02/16 08:48:26;;;;;;;13.70;7.55;;;;;;;9.87;62.82;99847.78;4479756;31;33016;-85
2022/02/16 08:50:57;;;;;;;10.00;7.47;;;;;;;9.91;62.39;99852.88;4492431;31;34224;-85
2022/02/16 08:53:27;;;;;;;10.90;6.47;;;;;;;9.60;63.70;99855.00;4475702;32;33741;-85
2022/02/16 08:56:00;;;;;;;12.13;7.32;;;;;;;9.84;62.86;99851.41;4488431;31;34535;-85
2022/02/16 08:58:29;;;;;;;12.35;6.32;;;;;;;9.66;63.43;99849.50;4493934;31;33641;-84
2022/02/16 09:01:00;;;;;;;10.05;6.20;;;;;;;9.78;63.19;99843.75;4473620;31;34119;-85
2022/02/16 09:03:29;;;;;;;11.32;6.43;;;;;;;9.95;62.05;99841.28;4477111;31;33383;-84
2022/02/16 09:05:59;;;;;;;10.40;5.17;;;;;;;9.90;63.04;99839.75;4483399;31;33355;-84
2022/02/16 09:08:27;;;;;;;9.00;4.78;;;;;;;10.04;62.56;99832.13;4482423;31;32135;-84
2022/02/16 09:10:57;;;;;;;8.75;4.85;;;;;;;10.17;61.37;99830.72;4491760;31;33092;-84
2022/02/16 09:13:25;;;;;;;8.50;4.93;;;;;;;10.10;61.43;99823.09;4461223;31;32278;-84
2022/02/16 09:15:53;;;;;;;8.13;4.78;;;;;;;10.28;61.45;99827.66;4484872;31;32213;-84
2022/02/16 09:18:29;;;;;;;7.95;5.18;;;;;;;10.34;60.92;99822.09;4491309;31;34016;-84
2022/02/16 09:21:05;;;;;;;10.82;5.72;;;;;;;10.45;60.83;99822.53;4477010;31;32815;-87
2022/02/16 09:23:38;;;;;;;10.55;5.75;;;;;;;10.15;62.98;99821.13;4481380;31;32935;-88
2022/02/16 09:26:18;;;;;;;10.02;5.65;;;;;;;10.33;62.86;99828.31;4478478;31;32897;-89
2022/02/16 09:28:47;;;;;;;6.93;4.10;;;;;;;10.20;63.97;99824.44;4479884;31;35113;-88
2022/02/16 09:31:20;;;;;;;8.73;4.45;;;;;;;10.34;62.63;99827.38;4478007;31;33498;-88
2022/02/16 09:33:54;;;;;;;7.75;5.68;;;;;;;10.28;62.28;99832.94;4480015;31;32320;-88
2022/02/16 09:36:24;;;;;;;7.28;5.15;;;;;;;10.61;61.35;99835.91;4477718;31;32501;-88
2022/02/16 09:38:57;;;;;;;13.02;6.25;;;;;;;10.17;62.50;99830.72;4480142;31;33944;-88
2022/02/16 09:41:34;;;;;;;11.75;6.90;;;;;;;10.53;61.55;99832.75;4474867;31;33115;-87
2022/02/16 09:44:14;;;;;;;12.30;6.47;;;;;;;10.11;62.35;99827.44;4479009;31;34167;-86
2022/02/16 09:46:50;;;;;;;11.68;7.15;;;;;;;10.51;61.55;99829.31;4476698;31;34126;-87
2022/02/16 09:49:23;;;;;;;14.13;8.40;;;;;;;10.60;62.27;99823.66;4491961;31;33715;-86
2022/02/16 09:51:52;;;;;;;12.98;7.28;;;;;;;11.01;59.42;99820.94;4478556;31;34500;-87
2022/02/16 09:54:19;;;;;;;12.10;6.93;;;;;;;11.20;59.05;99813.03;4475443;31;33174;-87
2022/02/16 09:56:47;;;;;;;11.10;7.15;;;;;;;11.29;59.78;99810.81;4475376;31;33565;-87
2022/02/16 09:59:15;;;;;;;13.80;7.53;;;;;;;11.33;58.71;99819.47;4480445;31;34651;-87
2022/02/16 10:01:58;;;;;;;13.73;6.37;;;;;;;11.83;57.40;99808.31;4493763;31;33337;-87
2022/02/16 10:04:27;;;;;;;8.65;5.72;;;;;;;11.81;56.92;99794.25;4476963;31;33353;-87
2022/02/16 10:06:56;;;;;;;12.15;6.35;;;;;;;11.80;56.25;99800.50;4478154;31;34328;-87
2022/02/16 10:09:25;;;;;;;8.85;5.47;;;;;;;11.88;57.21;99801.00;4484913;31;34325;-87
2022/02/16 10:11:56;;;;;;;13.57;6.47;;;;;;;11.71;57.29;99795.66;4494972;31;34158;-87
2022/02/16 10:14:29;;;;;;;10.07;6.62;;;;;;;12.25;54.53;99789.47;4484807;31;33337;-87
2022/02/16 10:17:02;;;;;;;8.20;5.30;;;;;;;12.27;54.75;99799.97;4480496;31;33463;-87
2022/02/16 10:20:00;;;;;;;9.10;5.50;;;;;;;12.57;54.27;99790.41;4489478;31;33691;-87
2022/02/16 10:22:42;;;;;;;6.65;4.05;;;;;;;13.03;52.31;99781.84;4474302;31;32467;-88
2022/02/16 10:25:10;;;;;;;7.53;4.32;;;;;;;13.24;51.01;99769.22;4459571;32;32513;-88
2022/02/16 10:27:39;;;;;;;6.25;4.90;;;;;;;13.13;51.74;99776.91;4490915;31;34198;-87
2022/02/16 10:30:16;;;;;;;8.13;4.72;;;;;;;13.37;49.93;99764.13;4478501;31;32793;-88
2022/02/16 10:32:45;;;;;;;8.70;5.75;;;;;;;13.30;51.72;99766.25;4485786;31;32758;-88
2022/02/16 10:35:12;;;;;;;11.55;6.90;;;;;;;13.53;49.09;99760.53;4466994;31;32276;-88
2022/02/16 10:37:40;;;;;;;9.55;6.18;;;;;;;13.65;49.37;99766.06;4475750;32;34664;-88
2022/02/16 10:40:13;;;;;;;9.38;5.78;;;;;;;13.18;50.99;99751.00;4484151;31;33177;-88
2022/02/16 10:42:54;;;;;;;11.63;6.07;;;;;;;13.22;50.83;99748.13;4479748;32;33613;-88
2022/02/16 10:45:24;;;;;;;8.65;5.62;;;;;;;13.24;51.66;99737.41;4488558;31;33908;-87
2022/02/16 10:48:03;;;;;;;7.07;5.47;;;;;;;13.33;49.86;99734.25;4469650;31;32794;-87
2022/02/16 10:50:44;;;;;;;11.48;6.12;;;;;;;13.61;48.38;99730.91;4492869;31;34089;-87
2022/02/16 10:53:11;;;;;;;9.30;5.50;;;;;;;13.50;49.31;99728.84;4493332;31;33367;-87
2022/02/16 10:55:41;;;;;;;8.15;5.20;;;;;;;13.83;50.01;99723.41;4491615;31;34215;-87
2022/02/16 10:58:18;;;;;;;8.65;5.62;;;;;;;14.11;47.16;99718.28;4492640;31;33311;-87
2022/02/16 11:00:48;;;;;;;9.73;6.12;;;;;;;14.50;46.63;99712.41;4478451;31;33630;-88
2022/02/16 11:03:27;;;;;;;7.72;5.18;;;;;;;14.63;45.24;99704.53;4482354;31;33796;-89
2022/02/16 11:05:57;;;;;;;10.60;6.07;;;;;;;15.00;44.08;99687.09;4475438;31;32569;-89
2022/02/16 11:08:26;;;;;;;9.60;5.95;;;;;;;14.60;46.94;99690.47;4492061;31;34576;-89
2022/02/16 11:11:16;;;;;;;11.12;6.40;;;;;;;14.74;47.75;99686.97;4469297;31;34123;-89
2022/02/16 11:13:55;;;;;;;9.50;5.35;;;;;;;14.92;43.59;99676.97;4483354;31;33324;-89
2022/02/16 11:16:24;;;;;;;7.35;4.68;;;;;;;15.20;42.44;99673.41;4484552;31;32279;-89
2022/02/16 11:18:59;;;;;;;7.30;4.68;;;;;;;15.27;41.81;99671.19;4473214;31;32757;-90
2022/02/16 11:22:13;;;;;;;7.85;4.60;;;;;;;15.20;40.96;99659.25;4492177;31;32432;-90
2022/02/16 11:24:49;;;;;;;8.77;5.25;;;;;;;14.83;42.46;99658.94;4463011;31;33334;-89
2022/02/16 11:27:20;;;;;;;8.02;5.40;;;;;;;14.42;43.46;99669.47;4492205;31;33589;-91
2022/02/16 11:29:49;;;;;;;9.75;6.12;;;;;;;14.07;45.06;99669.81;4498804;31;34634;-89
2022/02/16 11:32:18;;;;;;;10.50;5.65;;;;;;;14.14;45.13;99670.28;4483961;31;34018;-90
2022/02/16 11:35:21;;;;;;;6.68;5.05;;;;;;;14.07;46.67;99672.47;4476576;31;32527;-90
2022/02/16 11:38:05;;;;;;;6.90;4.95;;;;;;;14.49;44.94;99671.69;4478238;31;32429;-90